createdAt,value
2019-02-27T00:00:49.897Z,15.30
2019-02-27T00:03:17.347Z,17.63
2019-02-27T00:05:44.958Z,17.67
2019-02-27T00:08:12.289Z,18.33
2019-02-27T00:10:39.920Z,20.83
2019-02-27T00:13:07.514Z,16.67
2019-02-27T00:15:37.778Z,17.33
2019-02-27T00:18:04.184Z,19.13
2019-02-27T00:20:31.605Z,19.07
2019-02-27T00:22:58.996Z,15.60
2019-02-27T00:25:26.361Z,19.63
2019-02-27T00:27:53.837Z,16.77
2019-02-27T00:30:21.345Z,18.60
2019-02-27T00:32:51.188Z,15.97
2019-02-27T00:35:18.030Z,17.17
2019-02-27T00:37:45.343Z,17.43
2019-02-27T00:40:12.654Z,16.07
2019-02-27T00:42:40.019Z,17.33
2019-02-27T00:45:07.691Z,15.63
2019-02-27T00:47:35.286Z,15.93
2019-02-27T00:50:05.603Z,20.60
2019-02-27T00:52:33.783Z,21.17
2019-02-27T00:55:04.567Z,17.53
2019-02-27T00:57:32.246Z,16.70
2019-02-27T01:00:00.650Z,19.83
2019-02-27T01:02:28.058Z,20.43
2019-02-27T01:04:55.336Z,19.53
2019-02-27T01:07:22.626Z,17.93
2019-02-27T01:09:49.980Z,19.57
2019-02-27T01:12:17.435Z,19.77
2019-02-27T01:14:44.714Z,17.67
2019-02-27T01:17:12.003Z,17.37
2019-02-27T01:19:39.403Z,20.90
2019-02-27T01:22:06.882Z,18.57
2019-02-27T01:24:34.173Z,18.33
2019-02-27T01:27:04.323Z,22.03
2019-02-27T01:29:30.982Z,19.37
2019-02-27T01:31:58.327Z,16.23
2019-02-27T01:34:25.799Z,18.83
2019-02-27T01:36:54.876Z,17.70
2019-02-27T01:39:22.363Z,22.73
2019-02-27T01:41:49.708Z,18.13
2019-02-27T01:44:17.146Z,18.77
2019-02-27T01:46:45.596Z,16.27
2019-02-27T01:49:15.873Z,16.77
2019-02-27T01:51:42.381Z,18.70
2019-02-27T01:54:12.241Z,17.07
2019-02-27T01:56:38.959Z,17.70
2019-02-27T01:59:06.350Z,17.00
2019-02-27T02:01:33.658Z,18.30
2019-02-27T02:04:02.175Z,17.70
2019-02-27T02:06:32.025Z,16.37
2019-02-27T02:09:29.052Z,19.30
2019-02-27T02:11:56.455Z,20.20
2019-02-27T02:14:54.925Z,17.40
2019-02-27T02:18:19.502Z,18.07
2019-02-27T02:21:13.289Z,19.93
2019-02-27T02:24:08.279Z,20.00
2019-02-27T02:27:02.843Z,19.93
2019-02-27T02:30:07.759Z,19.70
2019-02-27T02:33:17.677Z,18.70
2019-02-27T02:36:13.734Z,18.70
2019-02-27T02:39:19.329Z,19.63
2019-02-27T02:42:02.485Z,19.70
2019-02-27T02:45:17.145Z,18.63
2019-02-27T02:48:27.882Z,19.20
2019-02-27T02:51:29.888Z,22.23
2019-02-27T02:54:16.201Z,23.47
2019-02-27T02:57:05.298Z,19.57
2019-02-27T03:00:27.247Z,17.33
2019-02-27T03:03:10.756Z,17.67
2019-02-27T03:06:11.037Z,20.80
2019-02-27T03:09:20.653Z,17.87
2019-02-27T03:12:29.933Z,21.53
2019-02-27T03:15:30.473Z,21.10
2019-02-27T03:18:20.415Z,18.50
2019-02-27T03:21:15.520Z,16.90
2019-02-27T03:24:33.062Z,20.10
2019-02-27T03:27:43.895Z,21.27
2019-02-27T03:30:36.556Z,16.77
2019-02-27T03:33:26.673Z,17.27
2019-02-27T03:36:36.108Z,21.10
2019-02-27T03:39:37.511Z,21.07
2019-02-27T03:42:34.103Z,17.87
2019-02-27T03:45:49.741Z,18.13
2019-02-27T03:48:48.443Z,19.50
2019-02-27T03:52:01.355Z,20.97
2019-02-27T03:55:12.872Z,19.17
2019-02-27T03:58:23.104Z,19.90
2019-02-27T04:01:35.631Z,20.30
2019-02-27T04:04:20.122Z,22.07
2019-02-27T04:07:20.795Z,17.60
2019-02-27T04:09:48.109Z,20.00
2019-02-27T04:12:16.442Z,21.07
2019-02-27T04:14:44.757Z,22.43
2019-02-27T04:17:12.096Z,16.77
2019-02-27T04:19:40.428Z,18.53
2019-02-27T04:22:08.032Z,16.00
2019-02-27T04:24:35.336Z,19.70
2019-02-27T04:27:02.577Z,21.87
2019-02-27T04:29:29.951Z,16.30
2019-02-27T04:31:57.322Z,19.03
2019-02-27T04:34:24.650Z,19.03
2019-02-27T04:36:52.114Z,17.43
2019-02-27T04:39:19.438Z,18.17
2019-02-27T04:41:46.872Z,20.97
2019-02-27T04:44:14.225Z,18.17
2019-02-27T04:46:41.571Z,19.40
2019-02-27T04:49:08.961Z,17.67
2019-02-27T04:51:36.293Z,22.20
2019-02-27T04:54:06.399Z,19.10
2019-02-27T04:56:32.882Z,21.00
2019-02-27T04:59:00.208Z,15.23
2019-02-27T05:01:27.605Z,19.07
2019-02-27T05:03:56.055Z,19.37
2019-02-27T05:06:23.311Z,20.87
2019-02-27T05:08:51.558Z,20.83
2019-02-27T05:11:18.891Z,21.10
2019-02-27T05:13:46.185Z,24.60
2019-02-27T05:16:14.155Z,20.17
2019-02-27T05:18:42.293Z,23.20
2019-02-27T05:21:09.659Z,18.53
2019-02-27T05:23:36.978Z,19.87
2019-02-27T05:26:05.446Z,19.97
2019-02-27T05:28:34.987Z,18.47
2019-02-27T05:31:03.054Z,17.73
2019-02-27T05:33:35.672Z,23.03
2019-02-27T05:35:59.637Z,20.23
2019-02-27T05:38:26.958Z,20.60
2019-02-27T05:40:59.859Z,21.60
2019-02-27T05:43:24.688Z,19.63
2019-02-27T05:45:52.009Z,19.50
2019-02-27T05:48:20.080Z,18.87
2019-02-27T05:50:47.965Z,19.50
2019-02-27T05:53:15.262Z,18.40
2019-02-27T05:55:42.614Z,18.27
2019-02-27T05:58:09.991Z,18.77
2019-02-27T06:00:37.429Z,20.07
2019-02-27T06:03:04.760Z,19.20
2019-02-27T06:05:51.563Z,18.03
2019-02-27T06:08:19.018Z,19.37
2019-02-27T06:11:05.758Z,20.70
2019-02-27T06:13:33.210Z,19.17
2019-02-27T06:16:03.818Z,17.83
2019-02-27T06:18:31.070Z,20.80
2019-02-27T06:20:59.635Z,31.13
2019-02-27T06:23:46.398Z,18.33
2019-02-27T06:26:15.899Z,21.67
2019-02-27T06:28:43.229Z,19.73
2019-02-27T06:31:10.597Z,22.40
2019-02-27T06:33:37.887Z,21.23
2019-02-27T06:36:07.605Z,25.60
2019-02-27T06:38:34.442Z,22.07
2019-02-27T06:41:01.733Z,17.37
2019-02-27T06:43:29.252Z,21.33
2019-02-27T06:45:56.646Z,19.03
2019-02-27T06:48:24.035Z,20.07
2019-02-27T06:50:51.346Z,19.23
2019-02-27T06:53:18.959Z,22.80
2019-02-27T06:55:49.407Z,22.97
2019-02-27T06:58:16.844Z,22.33
2019-02-27T07:00:44.210Z,18.03
2019-02-27T07:03:11.515Z,20.73
2019-02-27T07:05:38.788Z,17.93
2019-02-27T07:08:06.153Z,21.07
2019-02-27T07:10:33.473Z,26.67
2019-02-27T07:13:00.866Z,17.87
2019-02-27T07:15:28.424Z,21.50
2019-02-27T07:17:57.996Z,21.60
2019-02-27T07:20:25.401Z,22.27
2019-02-27T07:22:52.844Z,19.40
2019-02-27T07:27:47.266Z,21.00
2019-02-27T07:30:15.854Z,21.80
2019-02-27T07:32:43.210Z,20.47
2019-02-27T07:35:10.752Z,18.17
2019-02-27T07:37:38.166Z,17.57
2019-02-27T07:40:08.583Z,18.53
2019-02-27T07:42:36.634Z,16.13
2019-02-27T07:45:04.700Z,18.60
2019-02-27T07:47:33.082Z,15.73
2019-02-27T07:50:02.679Z,16.30
2019-02-27T07:52:32.558Z,18.00
2019-02-27T07:54:59.618Z,15.37
2019-02-27T07:57:26.932Z,16.40
2019-02-27T07:59:54.422Z,17.90
2019-02-27T08:02:21.867Z,14.10
2019-02-27T08:04:51.648Z,16.80
2019-02-27T08:07:19.479Z,17.27
2019-02-27T08:09:46.794Z,17.67
2019-02-27T08:12:14.205Z,12.80
2019-02-27T08:14:41.554Z,19.00
2019-02-27T08:17:17.278Z,16.87
2019-02-27T08:19:39.891Z,18.07
2019-02-27T08:22:07.186Z,14.40
2019-02-27T08:24:34.527Z,12.90
2019-02-27T08:27:01.978Z,16.70
2019-02-27T08:29:29.363Z,16.33
2019-02-27T08:32:00.907Z,13.33
2019-02-27T08:34:27.029Z,14.27
2019-02-27T08:36:54.295Z,17.70
2019-02-27T08:39:22.704Z,15.43
2019-02-27T08:41:49.999Z,14.67
2019-02-27T08:44:17.377Z,13.73
2019-02-27T08:46:44.702Z,15.43
2019-02-27T08:49:12.098Z,13.23
2019-02-27T08:51:39.837Z,16.10
2019-02-27T08:54:08.947Z,14.17
2019-02-27T08:56:36.377Z,14.40
2019-02-27T08:59:05.797Z,14.83
2019-02-27T09:01:33.953Z,12.20
2019-02-27T09:04:01.354Z,13.23
2019-02-27T09:06:28.689Z,15.80
2019-02-27T09:08:56.092Z,15.37
2019-02-27T09:11:23.378Z,15.23
2019-02-27T09:13:51.903Z,13.43
2019-02-27T09:16:23.091Z,15.07
2019-02-27T09:18:49.507Z,15.30
2019-02-27T09:21:17.262Z,17.23
2019-02-27T09:23:44.794Z,13.53
2019-02-27T09:26:12.250Z,15.83
2019-02-27T09:28:44.234Z,17.80
2019-02-27T09:31:08.850Z,14.23
2019-02-27T09:33:38.881Z,13.93
2019-02-27T09:36:08.038Z,12.53
2019-02-27T09:38:35.099Z,14.10
2019-02-27T09:41:03.492Z,15.23
2019-02-27T09:43:32.320Z,15.57
2019-02-27T09:45:59.918Z,14.80
2019-02-27T09:48:27.273Z,13.87
2019-02-27T09:50:54.666Z,16.43
2019-02-27T09:53:22.007Z,13.70
2019-02-27T09:55:53.439Z,14.10
2019-02-27T09:58:21.151Z,15.40
2019-02-27T10:00:52.252Z,17.03
2019-02-27T10:03:21.267Z,17.57
2019-02-27T10:05:48.768Z,18.10
2019-02-27T10:08:16.300Z,17.47
2019-02-27T10:10:45.896Z,15.23
2019-02-27T10:13:12.986Z,16.87
2019-02-27T10:15:41.342Z,19.63
2019-02-27T10:18:08.867Z,18.30
2019-02-27T10:20:37.329Z,18.63
2019-02-27T10:23:05.497Z,17.73
2019-02-27T10:25:33.034Z,16.97
2019-02-27T10:28:03.667Z,19.47
2019-02-27T10:30:29.850Z,16.17
2019-02-27T10:32:57.269Z,15.20
2019-02-27T10:35:26.813Z,18.43
2019-02-27T10:37:54.935Z,17.77
2019-02-27T10:40:22.362Z,17.77
2019-02-27T10:42:51.271Z,14.27
2019-02-27T10:45:18.768Z,15.33
2019-02-27T10:47:47.384Z,16.00
2019-02-27T10:50:16.634Z,17.40
2019-02-27T10:52:44.201Z,16.83
2019-02-27T10:55:14.240Z,17.40
2019-02-27T10:57:41.336Z,17.83
2019-02-27T11:00:29.946Z,15.50
2019-02-27T11:02:57.683Z,18.13
2019-02-27T11:05:25.566Z,15.60
2019-02-27T11:07:53.769Z,14.87
2019-02-27T11:10:21.822Z,15.93
2019-02-27T11:12:49.495Z,14.30
2019-02-27T11:15:18.286Z,15.27
2019-02-27T11:17:45.686Z,13.93
2019-02-27T11:20:13.295Z,16.83
2019-02-27T11:22:40.758Z,14.07
2019-02-27T11:25:12.537Z,16.97
2019-02-27T11:27:39.984Z,15.20
2019-02-27T11:30:11.167Z,14.33
2019-02-27T11:32:38.707Z,13.43
2019-02-27T11:35:06.087Z,14.23
2019-02-27T11:37:33.484Z,16.80
2019-02-27T11:40:00.786Z,14.23
2019-02-27T11:42:28.946Z,15.33
2019-02-27T11:44:57.317Z,12.77
2019-02-27T11:47:24.574Z,13.73
2019-02-27T11:49:51.840Z,14.40
2019-02-27T11:52:19.257Z,15.57
2019-02-27T11:54:46.590Z,15.17
2019-02-27T11:57:13.884Z,14.37
2019-02-27T11:59:41.195Z,12.73
2019-02-27T12:02:08.503Z,14.03
2019-02-27T12:04:35.843Z,15.70
2019-02-27T12:07:03.181Z,14.83
2019-02-27T12:09:34.943Z,11.73
2019-02-27T12:11:59.744Z,14.83
2019-02-27T12:14:27.051Z,14.20
2019-02-27T12:16:54.418Z,15.37
2019-02-27T12:19:21.814Z,15.13
2019-02-27T12:21:50.360Z,13.13
2019-02-27T12:24:18.978Z,14.03
2019-02-27T12:26:47.103Z,13.93
2019-02-27T12:29:14.442Z,13.33
2019-02-27T12:31:41.926Z,14.13
2019-02-27T12:34:09.198Z,12.77
2019-02-27T12:36:36.466Z,13.37
2019-02-27T12:39:05.075Z,12.20
2019-02-27T12:41:34.718Z,14.33
2019-02-27T12:44:02.108Z,15.77
2019-02-27T12:46:33.779Z,13.60
2019-02-27T12:48:58.696Z,11.43
2019-02-27T12:51:26.114Z,11.17
2019-02-27T12:53:54.644Z,10.87
2019-02-27T12:56:22.588Z,11.73
2019-02-27T12:58:49.906Z,11.50
2019-02-27T13:01:17.379Z,13.30
2019-02-27T13:03:44.829Z,12.40
2019-02-27T13:06:12.151Z,11.77
2019-02-27T13:08:39.518Z,11.00
2019-02-27T13:11:07.960Z,9.33
2019-02-27T13:13:37.340Z,11.90
2019-02-27T13:16:04.643Z,10.20
2019-02-27T13:18:32.709Z,14.57
2019-02-27T13:21:00.109Z,12.33
2019-02-27T13:23:27.435Z,10.30
2019-02-27T13:25:54.741Z,10.00
2019-02-27T13:28:22.018Z,10.40
2019-02-27T13:30:49.313Z,11.43
2019-02-27T13:33:16.789Z,9.83
2019-02-27T13:35:44.097Z,10.33
2019-02-27T13:38:11.476Z,11.43
2019-02-27T13:40:38.817Z,10.23
2019-02-27T13:43:06.298Z,10.13
2019-02-27T13:45:34.864Z,9.97
2019-02-27T13:48:05.862Z,10.00
2019-02-27T13:50:31.931Z,11.63
2019-02-27T13:52:59.345Z,9.57
2019-02-27T13:55:26.646Z,20.80
2019-02-27T13:57:58.864Z,10.63
2019-02-27T14:00:26.079Z,10.27
2019-02-27T14:02:53.529Z,12.97
2019-02-27T14:05:20.836Z,10.27
2019-02-27T14:07:48.214Z,12.13
2019-02-27T14:10:17.566Z,9.07
2019-02-27T14:12:45.367Z,9.60
2019-02-27T14:15:14.291Z,12.20
2019-02-27T14:17:42.180Z,10.00
2019-02-27T14:20:12.228Z,10.30
2019-02-27T14:22:41.235Z,12.13
2019-02-27T14:25:10.861Z,10.47
2019-02-27T14:27:40.426Z,12.87
2019-02-27T14:30:11.543Z,12.73
2019-02-27T14:32:39.015Z,12.50
2019-02-27T14:35:06.526Z,10.50
2019-02-27T14:37:33.856Z,14.13
2019-02-27T14:40:04.497Z,8.77
2019-02-27T14:42:32.923Z,9.73
2019-02-27T14:45:03.034Z,9.77
2019-02-27T14:47:31.007Z,11.53
2019-02-27T14:49:59.311Z,9.27
2019-02-27T14:52:27.602Z,12.37
2019-02-27T14:54:54.895Z,10.20
2019-02-27T14:57:22.265Z,10.13
2019-02-27T14:59:49.811Z,10.53
2019-02-27T15:02:22.052Z,10.83
2019-02-27T15:04:46.750Z,10.33
2019-02-27T15:07:15.187Z,8.87
2019-02-27T15:09:47.765Z,11.43
2019-02-27T15:12:12.990Z,11.50
2019-02-27T15:14:40.442Z,10.83
2019-02-27T15:17:07.731Z,12.53
2019-02-27T15:19:35.537Z,11.20
2019-02-27T15:22:03.165Z,9.23
2019-02-27T15:24:31.958Z,11.05
2019-02-27T15:27:00.002Z,10.15
2019-02-27T15:29:27.491Z,11.68
2019-02-27T15:31:55.435Z,12.50
2019-02-27T15:34:24.855Z,8.48
2019-02-27T15:36:52.411Z,11.05
2019-02-27T15:39:21.165Z,9.35
2019-02-27T15:41:48.953Z,16.48
2019-02-27T15:44:16.321Z,10.15
2019-02-27T15:46:44.882Z,10.98
2019-02-27T15:49:15.032Z,11.60
2019-02-27T15:51:44.710Z,16.57
2019-02-27T15:54:13.231Z,12.20
2019-02-27T15:56:41.993Z,14.38
2019-02-27T15:59:09.907Z,11.15
2019-02-27T16:01:37.330Z,12.47
2019-02-27T16:04:04.655Z,13.38
2019-02-27T16:06:32.070Z,12.47
2019-02-27T16:08:59.380Z,10.65
2019-02-27T16:11:26.727Z,9.73
2019-02-27T16:13:55.559Z,10.10
2019-02-27T16:16:24.788Z,9.37
2019-02-27T16:18:52.292Z,10.53
2019-02-27T16:21:20.971Z,9.63
2019-02-27T16:23:48.886Z,7.93
2019-02-27T16:26:16.356Z,9.83
2019-02-27T16:28:46.146Z,10.20
2019-02-27T16:31:12.932Z,10.80
2019-02-27T16:33:40.294Z,10.33
2019-02-27T16:36:07.686Z,10.73
2019-02-27T16:38:35.118Z,9.83
2019-02-27T16:41:02.495Z,8.80
2019-02-27T16:43:29.915Z,10.60
2019-02-27T16:45:57.281Z,8.73
2019-02-27T16:48:24.727Z,10.00
2019-02-27T16:50:52.077Z,9.23
2019-02-27T16:53:19.692Z,10.07
2019-02-27T16:55:48.187Z,9.70
2019-02-27T16:58:15.687Z,7.70
2019-02-27T17:00:43.065Z,9.60
2019-02-27T17:03:13.480Z,10.17
2019-02-27T17:05:43.213Z,8.67
2019-02-27T17:08:10.749Z,14.33
2019-02-27T17:10:38.199Z,14.80
2019-02-27T17:13:06.585Z,14.30
2019-02-27T17:15:36.009Z,11.27
2019-02-27T17:18:03.505Z,13.17
2019-02-27T17:20:30.877Z,12.57
2019-02-27T17:22:58.486Z,12.93
2019-02-27T17:25:29.019Z,12.33
2019-02-27T17:27:55.406Z,11.77
2019-02-27T17:30:24.858Z,11.33
2019-02-27T17:32:52.345Z,11.77
2019-02-27T17:35:20.571Z,12.00
2019-02-27T17:37:49.562Z,12.80
2019-02-27T17:40:17.310Z,12.27
2019-02-27T17:42:44.738Z,11.37
2019-02-27T17:45:15.074Z,11.17
2019-02-27T17:47:43.110Z,12.70
2019-02-27T17:50:13.024Z,12.60
2019-02-27T17:52:42.494Z,11.30
2019-02-27T17:55:09.858Z,14.23
2019-02-27T17:57:37.346Z,9.73
2019-02-27T18:00:08.280Z,13.40
2019-02-27T18:02:36.517Z,10.73
2019-02-27T18:05:04.171Z,12.50
2019-02-27T18:07:34.505Z,16.43
2019-02-27T18:10:03.241Z,12.13
2019-02-27T18:12:30.629Z,11.83
2019-02-27T18:15:00.055Z,14.63
2019-02-27T18:17:29.161Z,11.60
2019-02-27T18:19:56.689Z,12.00
2019-02-27T18:22:24.283Z,14.83
2019-02-27T18:24:51.710Z,11.97
2019-02-27T18:27:19.209Z,12.77
2019-02-27T18:29:48.167Z,14.80
2019-02-27T18:32:15.829Z,15.57
2019-02-27T18:34:43.272Z,14.70
2019-02-27T18:37:10.767Z,15.20
2019-02-27T18:39:38.109Z,13.70
2019-02-27T18:42:05.660Z,16.47
2019-02-27T18:44:33.123Z,12.23
2019-02-27T18:47:02.331Z,13.20
2019-02-27T18:49:29.751Z,16.10
2019-02-27T18:51:57.132Z,13.47
2019-02-27T18:54:26.139Z,13.97
2019-02-27T18:56:53.477Z,13.30
2019-02-27T18:59:21.961Z,17.67
2019-02-27T19:01:49.415Z,16.90
2019-02-27T19:04:16.689Z,12.87
2019-02-27T19:06:46.264Z,13.77
2019-02-27T19:09:13.190Z,14.83
2019-02-27T19:11:40.891Z,13.57
2019-02-27T19:14:08.426Z,15.60
2019-02-27T19:16:35.953Z,19.03
2019-02-27T19:19:24.634Z,19.37
2019-02-27T19:21:52.122Z,13.00
2019-02-27T19:24:19.713Z,14.73
2019-02-27T19:26:47.100Z,13.87
2019-02-27T19:29:14.497Z,12.33
2019-02-27T19:31:42.001Z,12.83
2019-02-27T19:34:10.256Z,13.27
2019-02-27T19:36:38.423Z,12.00
2019-02-27T19:39:08.054Z,11.23
2019-02-27T19:41:39.654Z,11.60
2019-02-27T19:44:06.648Z,11.47
2019-02-27T19:46:33.993Z,12.27
2019-02-27T19:49:03.528Z,12.80
2019-02-27T19:51:32.468Z,10.80
2019-02-27T19:53:59.809Z,11.47
2019-02-27T19:56:27.109Z,12.97
2019-02-27T19:59:01.453Z,14.27
2019-02-27T20:01:29.315Z,14.70
2019-02-27T20:03:56.637Z,11.10
2019-02-27T20:06:28.119Z,12.80
2019-02-27T20:08:55.760Z,12.00
2019-02-27T20:11:23.132Z,12.33
2019-02-27T20:13:50.565Z,11.07
2019-02-27T20:16:20.498Z,10.23
2019-02-27T20:18:54.713Z,11.97
2019-02-27T20:21:17.489Z,10.87
2019-02-27T20:23:44.947Z,15.40
2019-02-27T20:26:14.229Z,12.80
2019-02-27T20:28:41.506Z,12.57
2019-02-27T20:31:08.839Z,13.20
2019-02-27T20:33:37.236Z,13.93
2019-02-27T20:36:19.831Z,11.97
2019-02-27T20:39:00.980Z,11.97
2019-02-27T20:41:30.204Z,13.73
2019-02-27T20:44:00.350Z,10.67
2019-02-27T20:46:29.026Z,12.27
2019-02-27T20:48:56.323Z,12.17
2019-02-27T20:51:23.584Z,10.20
2019-02-27T20:53:55.116Z,12.87
2019-02-27T20:56:20.317Z,10.33
2019-02-27T20:58:51.072Z,9.17
2019-02-27T21:01:16.810Z,10.63
2019-02-27T21:03:44.125Z,12.03
2019-02-27T21:06:12.741Z,10.63
2019-02-27T21:08:41.876Z,12.47
2019-02-27T21:11:09.150Z,11.37
2019-02-27T21:13:36.516Z,10.50
2019-02-27T21:16:04.356Z,11.67
2019-02-27T21:18:33.391Z,11.60
2019-02-27T21:21:00.728Z,11.00
2019-02-27T21:23:28.115Z,10.97
2019-02-27T21:25:55.509Z,10.63
2019-02-27T21:28:22.804Z,11.23
2019-02-27T21:30:52.285Z,9.77
2019-02-27T21:33:19.563Z,11.03
2019-02-27T21:35:46.929Z,13.33
2019-02-27T21:38:16.613Z,10.03
2019-02-27T21:40:43.508Z,11.00
2019-02-27T21:43:10.900Z,11.30
2019-02-27T21:45:38.364Z,8.43
2019-02-27T21:48:05.976Z,11.00
2019-02-27T21:50:33.388Z,11.13
2019-02-27T21:53:00.714Z,10.83
2019-02-27T21:55:29.215Z,11.10
2019-02-27T21:57:58.115Z,9.60
2019-02-27T22:00:27.304Z,11.53
2019-02-27T22:02:54.755Z,8.93
2019-02-27T22:05:22.374Z,8.87
2019-02-27T22:07:49.966Z,8.67
2019-02-27T22:10:19.566Z,9.50
2019-02-27T22:12:46.521Z,9.80
2019-02-27T22:15:22.914Z,10.80
2019-02-27T22:17:48.671Z,11.93
2019-02-27T22:20:16.014Z,13.63
2019-02-27T22:22:43.296Z,11.50
2019-02-27T22:25:11.665Z,12.17
2019-02-27T22:27:38.968Z,10.50
2019-02-27T22:30:08.258Z,9.77
2019-02-27T22:32:35.580Z,13.87
2019-02-27T22:35:04.059Z,12.77
2019-02-27T22:37:31.713Z,12.17
2019-02-27T22:39:59.044Z,11.70
2019-02-27T22:42:26.369Z,10.73
2019-02-27T22:44:53.637Z,10.70
2019-02-27T22:47:21.654Z,10.27
2019-02-27T22:49:56.913Z,12.10
2019-02-27T22:52:24.312Z,9.47
2019-02-27T22:54:51.692Z,13.43
2019-02-27T22:57:18.982Z,9.60
2019-02-27T22:59:46.246Z,9.87
2019-02-27T23:02:13.849Z,13.07
2019-02-27T23:04:41.208Z,9.43
2019-02-27T23:07:08.628Z,10.30
2019-02-27T23:09:36.890Z,10.43
2019-02-27T23:12:08.499Z,12.37
2019-02-27T23:14:34.572Z,9.90
2019-02-27T23:17:01.907Z,10.73
2019-02-27T23:19:29.206Z,11.43
2019-02-27T23:21:57.573Z,12.17
2019-02-27T23:24:25.702Z,10.47
2019-02-27T23:26:54.812Z,13.10
2019-02-27T23:29:22.208Z,11.37
2019-02-27T23:31:49.622Z,12.43
2019-02-27T23:34:16.998Z,11.23
2019-02-27T23:36:44.357Z,9.93
2019-02-27T23:39:11.617Z,11.10
2019-02-27T23:41:40.792Z,10.73
2019-02-27T23:44:08.108Z,10.63
2019-02-27T23:46:35.383Z,10.90
2019-02-27T23:49:06.512Z,11.07
2019-02-27T23:51:33.098Z,9.87
2019-02-27T23:54:01.321Z,12.87
2019-02-27T23:56:29.381Z,13.47
2019-02-27T23:59:02.394Z,10.80
